createdAt,value
2018-04-27T00:05:41.067Z,19.05
2018-04-27T00:11:31.681Z,19.62
2018-04-27T00:17:22.315Z,21.59
2018-04-27T00:23:12.896Z,33.07
2018-04-27T00:29:03.486Z,28.48
2018-04-27T00:34:54.130Z,22.4
2018-04-27T00:40:44.683Z,20.64
2018-04-27T00:46:35.334Z,18.29
2018-04-27T00:52:25.910Z,17.51
2018-04-27T00:58:16.578Z,19.83
2018-04-27T01:04:07.121Z,20.01
2018-04-27T01:09:57.714Z,17.2
2018-04-27T01:15:48.352Z,16.91
2018-04-27T01:21:38.912Z,17.59
2018-04-27T01:27:29.558Z,17.66
2018-04-27T01:33:20.185Z,17.61
2018-04-27T01:39:10.748Z,16.81
2018-04-27T01:45:01.300Z,15.63
2018-04-27T01:50:51.938Z,15.9
2018-04-27T01:56:42.536Z,16.84
2018-04-27T02:02:33.212Z,18.61
2018-04-27T02:08:23.748Z,19.58
2018-04-27T02:14:14.460Z,17.63
2018-04-27T02:20:04.978Z,15.8
2018-04-27T02:25:55.580Z,16.83
2018-04-27T02:31:46.126Z,16.91
2018-04-27T02:37:36.746Z,18.15
2018-04-27T02:43:27.352Z,19.44
2018-04-27T02:49:17.983Z,18.87
2018-04-27T02:55:08.509Z,20.15
2018-04-27T03:00:59.164Z,25.8
2018-04-27T03:06:49.801Z,24.4
2018-04-27T03:12:40.311Z,20.4
2018-04-27T03:18:30.882Z,19.83
2018-04-27T03:24:21.484Z,22.74
2018-04-27T03:30:12.056Z,20.86
2018-04-27T03:36:02.667Z,20.49
2018-04-27T03:41:53.218Z,21.96
2018-04-27T03:47:43.851Z,23.74
2018-04-27T03:53:34.428Z,21.34
2018-04-27T03:59:24.992Z,21.08
2018-04-27T04:05:15.583Z,20.81
2018-04-27T04:11:06.224Z,23.18
2018-04-27T04:16:56.767Z,22.3
2018-04-27T04:22:47.488Z,24.87
2018-04-27T04:28:37.991Z,22.84
2018-04-27T04:34:28.532Z,19.91
2018-04-27T04:40:19.099Z,21.49
2018-04-27T04:46:09.816Z,21.69
2018-04-27T04:52:00.357Z,20.08
2018-04-27T04:57:51.020Z,20.38
2018-04-27T05:03:41.579Z,20.83
2018-04-27T05:09:32.218Z,20.82
2018-04-27T05:15:22.794Z,20.04
2018-04-27T05:21:13.351Z,20.95
2018-04-27T05:27:03.977Z,20.17
2018-04-27T05:32:54.580Z,22.87
2018-04-27T05:38:45.196Z,19.52
2018-04-27T05:44:35.795Z,20.79
2018-04-27T05:50:26.406Z,27.56
2018-04-27T05:56:17.047Z,40.51
2018-04-27T06:02:07.702Z,28.64
2018-04-27T06:07:58.291Z,26.69
2018-04-27T06:13:49.002Z,23.94
2018-04-27T06:19:39.593Z,27.36
2018-04-27T06:25:30.257Z,28.02
2018-04-27T06:31:20.872Z,28.39
2018-04-27T06:37:11.521Z,28.4
2018-04-27T06:43:02.297Z,27.61
2018-04-27T06:48:52.816Z,29.49
2018-04-27T06:54:43.463Z,26.98
2018-04-27T07:00:34.161Z,25.19
2018-04-27T07:06:24.833Z,26.29
2018-04-27T07:12:15.475Z,24.12
2018-04-27T07:18:06.139Z,22.47
2018-04-27T07:23:56.856Z,23.91
2018-04-27T07:29:47.513Z,22.79
2018-04-27T07:35:38.157Z,22.68
2018-04-27T07:41:28.839Z,22.43
2018-04-27T07:47:19.543Z,23.84
2018-04-27T07:53:10.217Z,23.64
2018-04-27T07:59:00.886Z,21.16
2018-04-27T08:04:51.631Z,19.35
2018-04-27T08:10:42.282Z,19.4
2018-04-27T08:16:32.936Z,17.9
2018-04-27T08:22:23.644Z,20.96
2018-04-27T08:28:14.357Z,19.56
2018-04-27T08:34:05.061Z,19.91
2018-04-27T08:39:55.806Z,21.76
2018-04-27T08:45:46.427Z,22.66
2018-04-27T08:51:37.211Z,18.7
2018-04-27T08:57:27.865Z,17.67
2018-04-27T09:03:18.484Z,18.49
2018-04-27T09:09:09.177Z,15.97
2018-04-27T09:14:59.923Z,15.07
2018-04-27T09:20:50.546Z,15.05
2018-04-27T09:26:41.369Z,15.09
2018-04-27T09:32:31.905Z,14.81
2018-04-27T09:38:22.654Z,13.21
2018-04-27T09:44:13.269Z,13.66
2018-04-27T09:50:04.015Z,12.8
2018-04-27T09:55:54.598Z,11.93
2018-04-27T10:01:45.303Z,11.91
2018-04-27T10:07:35.993Z,9.9
2018-04-27T10:13:26.632Z,8.67
2018-04-27T10:19:17.346Z,7.68
2018-04-27T10:25:08.066Z,6.32
2018-04-27T10:30:58.794Z,5.69
2018-04-27T10:36:49.436Z,5.86
2018-04-27T10:42:40.102Z,6.2
2018-04-27T10:48:30.853Z,6.03
2018-04-27T10:54:21.551Z,6.19
2018-04-27T11:00:12.256Z,5.96
2018-04-27T11:06:02.962Z,6.65
2018-04-27T11:11:53.711Z,7.35
2018-04-27T11:17:44.357Z,7
2018-04-27T11:23:35.056Z,7.32
2018-04-27T11:29:25.723Z,7.84
2018-04-27T11:35:16.491Z,6.46
2018-04-27T11:41:07.154Z,7.16
2018-04-27T11:46:57.859Z,8.01
2018-04-27T11:52:48.566Z,7.6
2018-04-27T11:58:39.245Z,7.95
2018-04-27T12:04:29.895Z,7.2
2018-04-27T12:10:20.636Z,8.06
2018-04-27T12:16:11.303Z,8.61
2018-04-27T12:22:01.979Z,8.11
2018-04-27T12:27:52.629Z,8.38
2018-04-27T12:33:43.351Z,6.62
2018-04-27T12:39:34.039Z,7.71
2018-04-27T12:45:24.692Z,7.23
2018-04-27T12:51:15.421Z,7.79
2018-04-27T12:57:06.084Z,8.32
2018-04-27T13:02:56.775Z,7.71
2018-04-27T13:08:47.452Z,8.93
2018-04-27T13:14:38.101Z,7.32
2018-04-27T13:20:28.766Z,7.59
2018-04-27T13:26:19.564Z,8.28
2018-04-27T13:32:10.160Z,8.27
2018-04-27T13:38:00.848Z,8.2
2018-04-27T13:43:51.528Z,9.16
2018-04-27T13:49:42.274Z,8.49
2018-04-27T13:55:32.967Z,8.57
2018-04-27T14:01:23.668Z,7.99
2018-04-27T14:07:14.390Z,7.61
2018-04-27T14:13:05.085Z,8.94
2018-04-27T14:18:55.740Z,7.93
2018-04-27T14:24:46.532Z,8.43
2018-04-27T14:30:37.173Z,8.51
2018-04-27T14:36:27.926Z,7.71
2018-04-27T14:42:18.569Z,8.61
2018-04-27T14:48:09.265Z,8.84
2018-04-27T14:53:59.918Z,9.73
2018-04-27T14:59:50.670Z,9.43
2018-04-27T15:05:41.337Z,8.38
2018-04-27T15:11:32.076Z,9.04
2018-04-27T15:17:22.688Z,9.31
2018-04-27T15:23:13.375Z,9
2018-04-27T15:29:04.109Z,8.78
2018-04-27T15:34:54.799Z,8.74
2018-04-27T15:40:45.495Z,8.74
2018-04-27T15:46:36.207Z,8.81
2018-04-27T15:52:26.994Z,9.43
2018-04-27T15:58:17.593Z,9.99
2018-04-27T16:04:08.326Z,10.01
2018-04-27T16:09:59.005Z,9.18
2018-04-27T16:15:49.733Z,9.61
2018-04-27T16:21:40.441Z,9.25
2018-04-27T16:27:31.179Z,9.39
2018-04-27T16:33:21.803Z,9.06
2018-04-27T16:39:12.589Z,9.42
2018-04-27T16:45:03.259Z,8.57
2018-04-27T16:50:53.918Z,9
2018-04-27T16:56:44.646Z,7.11
2018-04-27T17:02:35.363Z,9.68
2018-04-27T17:08:26.014Z,9.09
2018-04-27T17:14:16.696Z,9.15
2018-04-27T17:20:07.412Z,10
2018-04-27T17:25:58.117Z,9.37
2018-04-27T17:31:48.792Z,9.93
2018-04-27T17:37:39.500Z,9.86
2018-04-27T17:43:30.163Z,9.62
2018-04-27T17:49:20.818Z,8.89
2018-04-27T17:55:11.493Z,9.32
2018-04-27T18:01:02.224Z,8.93
2018-04-27T18:06:52.903Z,9.62
2018-04-27T18:12:43.642Z,14.68
2018-04-27T18:18:34.283Z,10.1
2018-04-27T18:24:24.998Z,11.62
2018-04-27T18:30:15.625Z,11.41
2018-04-27T18:36:06.335Z,11.13
2018-04-27T18:41:57.037Z,9.77
2018-04-27T18:47:47.701Z,11.16
2018-04-27T18:53:38.387Z,11.43
2018-04-27T18:59:29.065Z,14.74
2018-04-27T19:05:19.792Z,13.61
2018-04-27T19:11:10.568Z,12.93
2018-04-27T19:17:01.177Z,14.45
2018-04-27T19:22:51.911Z,15.1
2018-04-27T19:28:42.541Z,11.03
2018-04-27T19:34:33.211Z,18.15
2018-04-27T19:40:24.026Z,20.25
2018-04-27T19:46:14.590Z,34.34
2018-04-27T19:52:05.283Z,22.99
2018-04-27T19:57:55.999Z,15.23
2018-04-27T20:03:46.618Z,12.74
2018-04-27T20:09:37.376Z,10.86
2018-04-27T20:15:27.982Z,14.24
2018-04-27T20:21:18.698Z,28.78
2018-04-27T20:27:09.364Z,13.24
2018-04-27T20:33:00.057Z,11
2018-04-27T20:38:50.750Z,11.4
2018-04-27T20:44:41.438Z,11.55
2018-04-27T20:50:32.120Z,11.96
2018-04-27T20:56:22.831Z,11.57
2018-04-27T21:02:13.457Z,13.11
2018-04-27T21:08:04.134Z,13.54
2018-04-27T21:13:54.834Z,14.53
2018-04-27T21:19:45.503Z,12.85
2018-04-27T21:25:36.219Z,12.77
2018-04-27T21:31:26.876Z,11.93
2018-04-27T21:37:17.515Z,12.41
2018-04-27T21:43:08.233Z,12.82
2018-04-27T21:48:58.901Z,10.27
2018-04-27T21:54:49.578Z,11.16
2018-04-27T22:00:40.274Z,11.4
2018-04-27T22:06:30.875Z,11.4
2018-04-27T22:12:21.615Z,12.64
2018-04-27T22:18:12.275Z,12.41
2018-04-27T22:24:02.952Z,11.33
2018-04-27T22:29:53.627Z,12.75
2018-04-27T22:35:44.257Z,14.38
2018-04-27T22:41:34.954Z,16.96
2018-04-27T22:53:16.298Z,10.8
2018-04-27T22:59:06.996Z,11.99
2018-04-27T23:04:57.645Z,12.07
2018-04-27T23:10:48.348Z,11.93
2018-04-27T23:16:38.996Z,12.34
2018-04-27T23:22:29.651Z,12.27
2018-04-27T23:28:20.316Z,12.62
2018-04-27T23:34:10.939Z,12.09
2018-04-27T23:40:01.692Z,12.51
2018-04-27T23:45:52.346Z,12.62
2018-04-27T23:51:42.909Z,12.72
2018-04-27T23:57:33.571Z,13.58
